sensor_id;sensor_type;location;lat;lon;timestamp;pressure;altitude;pressure_sealevel;temperature;humidity
66273;BME280;58450;52.150;4.466;2022-11-22T00:00:27;98954.22;;;7.49;100.00
66273;BME280;58450;52.150;4.466;2022-11-22T00:02:55;98953.25;;;7.37;100.00
66273;BME280;58450;52.150;4.466;2022-11-22T00:05:22;98953.06;;;7.38;100.00
66273;BME280;58450;52.150;4.466;2022-11-22T00:07:50;98954.31;;;7.29;100.00
66273;BME280;58450;52.150;4.466;2022-11-22T00:10:19;98948.34;;;7.27;100.00
66273;BME280;58450;52.150;4.466;2022-11-22T00:12:46;98946.53;;;7.21;100.00
66273;BME280;58450;52.150;4.466;2022-11-22T00:15:14;98949.63;;;7.18;100.00
66273;BME280;58450;52.150;4.466;2022-11-22T00:17:41;98937.91;;;7.12;100.00
66273;BME280;58450;52.150;4.466;2022-11-22T00:20:09;98946.56;;;7.07;100.00
66273;BME280;58450;52.150;4.466;2022-11-22T00:22:37;98946.63;;;7.01;100.00
66273;BME280;58450;52.150;4.466;2022-11-22T00:25:05;98944.97;;;7.00;100.00
66273;BME280;58450;52.150;4.466;2022-11-22T00:27:35;98945.81;;;6.93;100.00
66273;BME280;58450;52.150;4.466;2022-11-22T00:30:03;98942.94;;;6.88;100.00
66273;BME280;58450;52.150;4.466;2022-11-22T00:32:32;98943.13;;;6.87;100.00
66273;BME280;58450;52.150;4.466;2022-11-22T00:34:59;98944.16;;;6.86;100.00
66273;BME280;58450;52.150;4.466;2022-11-22T00:37:27;98944.41;;;6.84;100.00
66273;BME280;58450;52.150;4.466;2022-11-22T00:39:55;98942.94;;;6.82;100.00
66273;BME280;58450;52.150;4.466;2022-11-22T00:42:22;98945.00;;;6.79;100.00
66273;BME280;58450;52.150;4.466;2022-11-22T00:44:51;98945.41;;;6.83;100.00
66273;BME280;58450;52.150;4.466;2022-11-22T00:47:18;98955.91;;;6.85;100.00
66273;BME280;58450;52.150;4.466;2022-11-22T00:49:46;98968.03;;;6.87;100.00
66273;BME280;58450;52.150;4.466;2022-11-22T00:52:13;98962.28;;;6.90;100.00
66273;BME280;58450;52.150;4.466;2022-11-22T00:54:41;98957.53;;;6.92;100.00
66273;BME280;58450;52.150;4.466;2022-11-22T00:57:10;98961.84;;;6.87;100.00
66273;BME280;58450;52.150;4.466;2022-11-22T00:59:37;98963.31;;;6.89;100.00
66273;BME280;58450;52.150;4.466;2022-11-22T01:02:06;98956.50;;;6.87;100.00
66273;BME280;58450;52.150;4.466;2022-11-22T01:04:34;98958.19;;;6.81;100.00
66273;BME280;58450;52.150;4.466;2022-11-22T01:07:01;98952.84;;;6.81;100.00
66273;BME280;58450;52.150;4.466;2022-11-22T01:09:29;98957.75;;;6.77;100.00
66273;BME280;58450;52.150;4.466;2022-11-22T01:11:56;98956.34;;;6.75;100.00
66273;BME280;58450;52.150;4.466;2022-11-22T01:14:24;98948.94;;;6.70;100.00
66273;BME280;58450;52.150;4.466;2022-11-22T01:16:52;98952.84;;;6.68;100.00
66273;BME280;58450;52.150;4.466;2022-11-22T01:19:21;98938.66;;;6.67;100.00
66273;BME280;58450;52.150;4.466;2022-11-22T01:21:48;98947.94;;;6.64;100.00
66273;BME280;58450;52.150;4.466;2022-11-22T01:24:16;98949.97;;;6.62;100.00
66273;BME280;58450;52.150;4.466;2022-11-22T01:26:43;98954.94;;;6.59;100.00
66273;BME280;58450;52.150;4.466;2022-11-22T01:29:10;98952.25;;;6.59;100.00
66273;BME280;58450;52.150;4.466;2022-11-22T01:31:38;98957.59;;;6.59;100.00
66273;BME280;58450;52.150;4.466;2022-11-22T01:34:05;98953.06;;;6.59;100.00
66273;BME280;58450;52.150;4.466;2022-11-22T01:36:34;98953.69;;;6.61;100.00
66273;BME280;58450;52.150;4.466;2022-11-22T01:39:02;98958.03;;;6.56;100.00
66273;BME280;58450;52.150;4.466;2022-11-22T01:41:29;98953.28;;;6.58;100.00
66273;BME280;58450;52.150;4.466;2022-11-22T01:43:57;98949.16;;;6.55;100.00
66273;BME280;58450;52.150;4.466;2022-11-22T01:46:43;98948.75;;;6.58;100.00
66273;BME280;58450;52.150;4.466;2022-11-22T01:49:22;98945.06;;;6.59;100.00
66273;BME280;58450;52.150;4.466;2022-11-22T01:51:58;98945.88;;;6.60;100.00
66273;BME280;58450;52.150;4.466;2022-11-22T01:54:33;98946.09;;;6.58;100.00
66273;BME280;58450;52.150;4.466;2022-11-22T01:57:07;98943.44;;;6.52;100.00
66273;BME280;58450;52.150;4.466;2022-11-22T01:59:47;98951.03;;;6.55;100.00
66273;BME280;58450;52.150;4.466;2022-11-22T02:02:18;98951.84;;;6.42;100.00
66273;BME280;58450;52.150;4.466;2022-11-22T02:04:47;98958.03;;;6.42;100.00
66273;BME280;58450;52.150;4.466;2022-11-22T02:07:20;98959.25;;;6.46;100.00
66273;BME280;58450;52.150;4.466;2022-11-22T02:09:51;98961.50;;;6.43;100.00
66273;BME280;58450;52.150;4.466;2022-11-22T02:12:22;98960.91;;;6.41;100.00
66273;BME280;58450;52.150;4.466;2022-11-22T02:14:55;98968.91;;;6.41;100.00
66273;BME280;58450;52.150;4.466;2022-11-22T02:17:24;98962.34;;;6.43;100.00
66273;BME280;58450;52.150;4.466;2022-11-22T02:19:52;98952.69;;;6.35;100.00
66273;BME280;58450;52.150;4.466;2022-11-22T02:22:29;98957.19;;;6.42;100.00
66273;BME280;58450;52.150;4.466;2022-11-22T02:25:04;98954.72;;;6.33;100.00
66273;BME280;58450;52.150;4.466;2022-11-22T02:27:40;98957.00;;;6.30;100.00
66273;BME280;58450;52.150;4.466;2022-11-22T02:30:09;98955.34;;;6.29;100.00
66273;BME280;58450;52.150;4.466;2022-11-22T02:32:37;98964.59;;;6.26;100.00
66273;BME280;58450;52.150;4.466;2022-11-22T02:35:16;98971.38;;;6.29;100.00
66273;BME280;58450;52.150;4.466;2022-11-22T02:37:46;98957.41;;;6.27;100.00
66273;BME280;58450;52.150;4.466;2022-11-22T02:40:16;98970.56;;;6.21;100.00
66273;BME280;58450;52.150;4.466;2022-11-22T02:42:51;98973.41;;;6.20;100.00
66273;BME280;58450;52.150;4.466;2022-11-22T02:45:24;98976.72;;;6.22;100.00
66273;BME280;58450;52.150;4.466;2022-11-22T02:47:52;98980.44;;;6.28;100.00
66273;BME280;58450;52.150;4.466;2022-11-22T02:50:19;98982.47;;;6.19;100.00
66273;BME280;58450;52.150;4.466;2022-11-22T02:52:47;98977.75;;;6.14;100.00
66273;BME280;58450;52.150;4.466;2022-11-22T02:55:14;98979.59;;;6.14;100.00
66273;BME280;58450;52.150;4.466;2022-11-22T02:57:42;98983.28;;;6.06;100.00
66273;BME280;58450;52.150;4.466;2022-11-22T03:00:12;98984.94;;;6.14;100.00
66273;BME280;58450;52.150;4.466;2022-11-22T03:02:40;98981.84;;;6.10;100.00
66273;BME280;58450;52.150;4.466;2022-11-22T03:05:08;98989.69;;;6.12;100.00
66273;BME280;58450;52.150;4.466;2022-11-22T03:07:35;98989.69;;;6.12;100.00
66273;BME280;58450;52.150;4.466;2022-11-22T03:10:03;99003.00;;;6.05;100.00
66273;BME280;58450;52.150;4.466;2022-11-22T03:12:31;99004.06;;;6.11;100.00
66273;BME280;58450;52.150;4.466;2022-11-22T03:14:58;99007.56;;;6.18;100.00
66273;BME280;58450;52.150;4.466;2022-11-22T03:17:28;98995.84;;;6.26;100.00
66273;BME280;58450;52.150;4.466;2022-11-22T03:19:55;98998.28;;;6.27;100.00
66273;BME280;58450;52.150;4.466;2022-11-22T03:22:23;98992.75;;;6.29;100.00
66273;BME280;58450;52.150;4.466;2022-11-22T03:24:50;98997.69;;;6.32;100.00
66273;BME280;58450;52.150;4.466;2022-11-22T03:27:17;98988.63;;;6.40;100.00
66273;BME280;58450;52.150;4.466;2022-11-22T03:29:45;99017.00;;;6.41;100.00
66273;BME280;58450;52.150;4.466;2022-11-22T03:32:12;99001.81;;;6.41;100.00
66273;BME280;58450;52.150;4.466;2022-11-22T03:34:42;99006.75;;;6.58;100.00
66273;BME280;58450;52.150;4.466;2022-11-22T03:37:10;99005.50;;;6.47;100.00
66273;BME280;58450;52.150;4.466;2022-11-22T03:39:37;99017.22;;;6.53;100.00
66273;BME280;58450;52.150;4.466;2022-11-22T03:42:04;99013.94;;;6.50;100.00
66273;BME280;58450;52.150;4.466;2022-11-22T03:44:32;99020.09;;;6.44;100.00
66273;BME280;58450;52.150;4.466;2022-11-22T03:46:59;99003.84;;;6.66;100.00
66273;BME280;58450;52.150;4.466;2022-11-22T03:49:27;99005.09;;;6.50;100.00
66273;BME280;58450;52.150;4.466;2022-11-22T03:51:56;99003.66;;;6.47;100.00
66273;BME280;58450;52.150;4.466;2022-11-22T03:54:23;99005.50;;;6.33;100.00
66273;BME280;58450;52.150;4.466;2022-11-22T03:56:51;99014.53;;;6.32;100.00
66273;BME280;58450;52.150;4.466;2022-11-22T03:59:18;99015.97;;;6.35;100.00
66273;BME280;58450;52.150;4.466;2022-11-22T04:01:46;99025.84;;;6.28;100.00
66273;BME280;58450;52.150;4.466;2022-11-22T04:04:13;99022.16;;;6.29;100.00
66273;BME280;58450;52.150;4.466;2022-11-22T04:06:41;99020.91;;;6.18;100.00
66273;BME280;58450;52.150;4.466;2022-11-22T04:09:10;99033.25;;;6.26;100.00
66273;BME280;58450;52.150;4.466;2022-11-22T04:11:37;99040.63;;;6.24;100.00
66273;BME280;58450;52.150;4.466;2022-11-22T04:14:05;99044.09;;;6.17;100.00
66273;BME280;58450;52.150;4.466;2022-11-22T04:16:50;99035.28;;;6.17;100.00
66273;BME280;58450;52.150;4.466;2022-11-22T04:19:18;99039.78;;;6.16;100.00
66273;BME280;58450;52.150;4.466;2022-11-22T04:21:45;99028.91;;;6.18;100.00
66273;BME280;58450;52.150;4.466;2022-11-22T04:24:13;99022.13;;;6.15;100.00
66273;BME280;58450;52.150;4.466;2022-11-22T04:26:58;99031.78;;;6.10;100.00
66273;BME280;58450;52.150;4.466;2022-11-22T04:29:25;99030.75;;;6.11;100.00
66273;BME280;58450;52.150;4.466;2022-11-22T04:31:53;99037.31;;;6.01;100.00
66273;BME280;58450;52.150;4.466;2022-11-22T04:34:38;99040.72;;;5.88;100.00
66273;BME280;58450;52.150;4.466;2022-11-22T04:37:05;99042.38;;;5.89;100.00
66273;BME280;58450;52.150;4.466;2022-11-22T04:39:34;99052.47;;;5.94;100.00
66273;BME280;58450;52.150;4.466;2022-11-22T04:42:01;99051.22;;;5.97;100.00
66273;BME280;58450;52.150;4.466;2022-11-22T04:44:46;99038.66;;;5.90;100.00
66273;BME280;58450;52.150;4.466;2022-11-22T04:47:15;99047.13;;;5.94;100.00
66273;BME280;58450;52.150;4.466;2022-11-22T04:49:58;99047.31;;;5.92;100.00
66273;BME280;58450;52.150;4.466;2022-11-22T04:52:25;99045.25;;;5.95;100.00
66273;BME280;58450;52.150;4.466;2022-11-22T04:55:12;99047.78;;;6.03;100.00
66273;BME280;58450;52.150;4.466;2022-11-22T04:57:39;99043.28;;;6.03;100.00
66273;BME280;58450;52.150;4.466;2022-11-22T05:00:07;99057.47;;;6.11;100.00
66273;BME280;58450;52.150;4.466;2022-11-22T05:02:35;99044.91;;;6.11;100.00
66273;BME280;58450;52.150;4.466;2022-11-22T05:05:04;99054.56;;;6.12;100.00
66273;BME280;58450;52.150;4.466;2022-11-22T05:07:32;99057.25;;;6.12;100.00
66273;BME280;58450;52.150;4.466;2022-11-22T05:09:59;99044.13;;;6.11;100.00
66273;BME280;58450;52.150;4.466;2022-11-22T05:12:28;99056.03;;;6.15;100.00
66273;BME280;58450;52.150;4.466;2022-11-22T05:14:56;99060.72;;;6.06;100.00
66273;BME280;58450;52.150;4.466;2022-11-22T05:17:23;99050.25;;;6.11;100.00
66273;BME280;58450;52.150;4.466;2022-11-22T05:19:50;99057.69;;;6.23;100.00
66273;BME280;58450;52.150;4.466;2022-11-22T05:22:18;99065.25;;;6.19;100.00
66273;BME280;58450;52.150;4.466;2022-11-22T05:25:07;99057.44;;;6.04;100.00
66273;BME280;58450;52.150;4.466;2022-11-22T05:27:35;99056.84;;;6.09;100.00
66273;BME280;58450;52.150;4.466;2022-11-22T05:30:05;99055.78;;;6.03;100.00
66273;BME280;58450;52.150;4.466;2022-11-22T05:32:33;99052.94;;;6.11;100.00
66273;BME280;58450;52.150;4.466;2022-11-22T05:35:00;99057.06;;;6.14;100.00
66273;BME280;58450;52.150;4.466;2022-11-22T05:37:28;99049.03;;;6.07;100.00
66273;BME280;58450;52.150;4.466;2022-11-22T05:39:55;99056.81;;;6.02;100.00
66273;BME280;58450;52.150;4.466;2022-11-22T05:42:23;99055.16;;;6.01;100.00
66273;BME280;58450;52.150;4.466;2022-11-22T05:44:52;99062.53;;;5.99;100.00
66273;BME280;58450;52.150;4.466;2022-11-22T05:47:19;99062.91;;;5.96;100.00
66273;BME280;58450;52.150;4.466;2022-11-22T05:49:46;99060.88;;;5.98;100.00
66273;BME280;58450;52.150;4.466;2022-11-22T05:52:14;99053.34;;;6.01;100.00
66273;BME280;58450;52.150;4.466;2022-11-22T05:54:41;99059.63;;;5.87;100.00
66273;BME280;58450;52.150;4.466;2022-11-22T05:57:09;99051.00;;;5.85;100.00
66273;BME280;58450;52.150;4.466;2022-11-22T05:59:36;99050.38;;;5.89;100.00
66273;BME280;58450;52.150;4.466;2022-11-22T06:02:05;99057.75;;;5.87;100.00
66273;BME280;58450;52.150;4.466;2022-11-22T06:04:32;99060.81;;;5.84;100.00
66273;BME280;58450;52.150;4.466;2022-11-22T06:07:00;99054.69;;;5.84;100.00
66273;BME280;58450;52.150;4.466;2022-11-22T06:09:27;99054.69;;;5.84;100.00
66273;BME280;58450;52.150;4.466;2022-11-22T06:11:55;99068.00;;;5.77;100.00
66273;BME280;58450;52.150;4.466;2022-11-22T06:14:22;99048.09;;;5.80;100.00
66273;BME280;58450;52.150;4.466;2022-11-22T06:16:50;99048.75;;;5.95;100.00
66273;BME280;58450;52.150;4.466;2022-11-22T06:19:19;99046.28;;;5.87;100.00
66273;BME280;58450;52.150;4.466;2022-11-22T06:21:47;99046.84;;;5.82;100.00
66273;BME280;58450;52.150;4.466;2022-11-22T06:24:14;99037.03;;;5.83;100.00
66273;BME280;58450;52.150;4.466;2022-11-22T06:26:42;99041.75;;;5.87;100.00
66273;BME280;58450;52.150;4.466;2022-11-22T06:29:09;99050.59;;;5.88;100.00
66273;BME280;58450;52.150;4.466;2022-11-22T06:31:37;99050.59;;;5.88;100.00
66273;BME280;58450;52.150;4.466;2022-11-22T06:34:04;99041.97;;;5.86;100.00
66273;BME280;58450;52.150;4.466;2022-11-22T06:36:33;99043.03;;;5.98;100.00
66273;BME280;58450;52.150;4.466;2022-11-22T06:39:01;99047.75;;;5.96;100.00
66273;BME280;58450;52.150;4.466;2022-11-22T06:41:32;99029.44;;;5.93;100.00
66273;BME280;58450;52.150;4.466;2022-11-22T06:44:03;99041.72;;;5.81;100.00
66273;BME280;58450;52.150;4.466;2022-11-22T06:46:32;99042.16;;;5.84;100.00
66273;BME280;58450;52.150;4.466;2022-11-22T06:49:00;99040.50;;;5.83;100.00
66273;BME280;58450;52.150;4.466;2022-11-22T06:51:30;99034.31;;;5.76;100.00
66273;BME280;58450;52.150;4.466;2022-11-22T06:53:59;99035.97;;;5.77;100.00
66273;BME280;58450;52.150;4.466;2022-11-22T06:56:29;99041.13;;;5.85;100.00
66273;BME280;58450;52.150;4.466;2022-11-22T06:59:00;99051.00;;;5.85;100.00
66273;BME280;58450;52.150;4.466;2022-11-22T07:01:30;99049.94;;;5.79;100.00
66273;BME280;58450;52.150;4.466;2022-11-22T07:03:59;99049.94;;;5.79;100.00
66273;BME280;58450;52.150;4.466;2022-11-22T07:06:30;99057.13;;;5.79;100.00
66273;BME280;58450;52.150;4.466;2022-11-22T07:09:03;99059.97;;;5.77;100.00
66273;BME280;58450;52.150;4.466;2022-11-22T07:11:32;99056.13;;;5.86;100.00
66273;BME280;58450;52.150;4.466;2022-11-22T07:14:02;99066.22;;;5.91;100.00
66273;BME280;58450;52.150;4.466;2022-11-22T07:16:30;99059.41;;;5.88;100.00
66273;BME280;58450;52.150;4.466;2022-11-22T07:18:59;99069.06;;;5.89;100.00
66273;BME280;58450;52.150;4.466;2022-11-22T07:21:26;99062.53;;;5.99;100.00
66273;BME280;58450;52.150;4.466;2022-11-22T07:23:54;99064.00;;;6.01;100.00
66273;BME280;58450;52.150;4.466;2022-11-22T07:26:25;99074.44;;;5.96;100.00
66273;BME280;58450;52.150;4.466;2022-11-22T07:28:53;99061.91;;;5.97;100.00
66273;BME280;58450;52.150;4.466;2022-11-22T07:31:20;99064.16;;;5.93;100.00
66273;BME280;58450;52.150;4.466;2022-11-22T07:33:48;99071.78;;;5.96;100.00
66273;BME280;58450;52.150;4.466;2022-11-22T07:36:17;99064.97;;;5.94;100.00
66273;BME280;58450;52.150;4.466;2022-11-22T07:38:46;99065.41;;;5.97;100.00
66273;BME280;58450;52.150;4.466;2022-11-22T07:41:16;99060.66;;;5.92;100.00
66273;BME280;58450;52.150;4.466;2022-11-22T07:43:45;99063.19;;;6.01;100.00
66273;BME280;58450;52.150;4.466;2022-11-22T07:46:19;99069.50;;;6.00;100.00
66273;BME280;58450;52.150;4.466;2022-11-22T07:48:49;99077.13;;;5.96;100.00
66273;BME280;58450;52.150;4.466;2022-11-22T07:51:17;99074.03;;;5.99;100.00
66273;BME280;58450;52.150;4.466;2022-11-22T07:53:45;99082.53;;;6.16;100.00
66273;BME280;58450;52.150;4.466;2022-11-22T07:56:13;99076.16;;;6.24;100.00
66273;BME280;58450;52.150;4.466;2022-11-22T07:58:40;99084.56;;;6.08;100.00
66273;BME280;58450;52.150;4.466;2022-11-22T08:01:10;99089.72;;;6.16;100.00
66273;BME280;58450;52.150;4.466;2022-11-22T08:03:39;99089.13;;;6.14;100.00
66273;BME280;58450;52.150;4.466;2022-11-22T08:06:09;99079.47;;;6.19;100.00
66273;BME280;58450;52.150;4.466;2022-11-22T08:08:38;99097.97;;;6.28;100.00
66273;BME280;58450;52.150;4.466;2022-11-22T08:11:06;99100.59;;;6.21;100.00
66273;BME280;58450;52.150;4.466;2022-11-22T08:13:34;99095.47;;;6.26;100.00
66273;BME280;58450;52.150;4.466;2022-11-22T08:16:03;99101.25;;;6.30;100.00
66273;BME280;58450;52.150;4.466;2022-11-22T08:18:35;99097.13;;;6.27;100.00
66273;BME280;58450;52.150;4.466;2022-11-22T08:21:05;99090.75;;;6.21;100.00
66273;BME280;58450;52.150;4.466;2022-11-22T08:23:34;99094.69;;;6.26;100.00
66273;BME280;58450;52.150;4.466;2022-11-22T08:26:01;99101.22;;;6.23;100.00
66273;BME280;58450;52.150;4.466;2022-11-22T08:28:29;99104.13;;;6.28;100.00
66273;BME280;58450;52.150;4.466;2022-11-22T08:30:59;99101.06;;;6.38;100.00
66273;BME280;58450;52.150;4.466;2022-11-22T08:33:27;99106.59;;;6.30;100.00
66273;BME280;58450;52.150;4.466;2022-11-22T08:35:56;99101.25;;;6.36;100.00
66273;BME280;58450;52.150;4.466;2022-11-22T08:38:24;99106.78;;;6.21;100.00
66273;BME280;58450;52.150;4.466;2022-11-22T08:40:51;99108.25;;;6.31;100.00
66273;BME280;58450;52.150;4.466;2022-11-22T08:43:19;99115.25;;;6.32;100.00
66273;BME280;58450;52.150;4.466;2022-11-22T08:45:47;99128.78;;;6.24;100.00
66273;BME280;58450;52.150;4.466;2022-11-22T08:48:19;99124.28;;;6.31;100.00
66273;BME280;58450;52.150;4.466;2022-11-22T08:50:49;99112.56;;;6.39;100.00
66273;BME280;58450;52.150;4.466;2022-11-22T08:53:18;99116.88;;;6.33;100.00
66273;BME280;58450;52.150;4.466;2022-11-22T08:55:46;99131.44;;;6.24;100.00
66273;BME280;58450;52.150;4.466;2022-11-22T08:58:13;99108.03;;;6.26;100.00
66273;BME280;58450;52.150;4.466;2022-11-22T09:00:41;99125.50;;;6.28;100.00
66273;BME280;58450;52.150;4.466;2022-11-22T09:03:08;99138.84;;;6.21;100.00
66273;BME280;58450;52.150;4.466;2022-11-22T09:05:36;99126.91;;;6.24;100.00
66273;BME280;58450;52.150;4.466;2022-11-22T09:08:04;99134.94;;;6.24;100.00
66273;BME280;58450;52.150;4.466;2022-11-22T09:10:33;99129.81;;;6.23;100.00
66273;BME280;58450;52.150;4.466;2022-11-22T09:13:00;99126.34;;;6.29;100.00
66273;BME280;58450;52.150;4.466;2022-11-22T09:15:28;99127.13;;;6.29;100.00
66273;BME280;58450;52.150;4.466;2022-11-22T09:17:59;99135.00;;;6.44;100.00
66273;BME280;58450;52.150;4.466;2022-11-22T09:20:28;99133.75;;;6.40;100.00
66273;BME280;58450;52.150;4.466;2022-11-22T09:22:55;99152.47;;;6.40;100.00
66273;BME280;58450;52.150;4.466;2022-11-22T09:25:23;99147.75;;;6.49;100.00
66273;BME280;58450;52.150;4.466;2022-11-22T09:27:51;99146.50;;;6.45;100.00
66273;BME280;58450;52.150;4.466;2022-11-22T09:30:19;99145.50;;;6.53;100.00
66273;BME280;58450;52.150;4.466;2022-11-22T09:32:47;99146.13;;;6.55;100.00
66273;BME280;58450;52.150;4.466;2022-11-22T09:35:14;99144.88;;;6.57;100.00
66273;BME280;58450;52.150;4.466;2022-11-22T09:37:45;99147.38;;;6.59;100.00
66273;BME280;58450;52.150;4.466;2022-11-22T09:40:12;99142.03;;;6.65;100.00
66273;BME280;58450;52.150;4.466;2022-11-22T09:42:48;99148.59;;;6.76;100.00
66273;BME280;58450;52.150;4.466;2022-11-22T09:46:02;99137.69;;;6.71;100.00
66273;BME280;58450;52.150;4.466;2022-11-22T09:48:58;99145.94;;;6.76;100.00
66273;BME280;58450;52.150;4.466;2022-11-22T09:51:41;99150.69;;;6.81;100.00
66273;BME280;58450;52.150;4.466;2022-11-22T09:54:18;99149.66;;;6.89;100.00
66273;BME280;58450;52.150;4.466;2022-11-22T09:56:53;99151.31;;;7.03;100.00
66273;BME280;58450;52.150;4.466;2022-11-22T09:59:31;99154.38;;;7.00;100.00
66273;BME280;58450;52.150;4.466;2022-11-22T10:02:03;99158.91;;;6.93;100.00
66273;BME280;58450;52.150;4.466;2022-11-22T10:04:37;99156.22;;;6.79;100.00
66273;BME280;58450;52.150;4.466;2022-11-22T10:07:13;99152.94;;;6.84;100.00
66273;BME280;58450;52.150;4.466;2022-11-22T10:09:50;99154.81;;;6.90;100.00
66273;BME280;58450;52.150;4.466;2022-11-22T10:12:25;99148.41;;;6.85;100.00
66273;BME280;58450;52.150;4.466;2022-11-22T10:15:05;99140.81;;;6.88;100.00
66273;BME280;58450;52.150;4.466;2022-11-22T10:17:50;99141.63;;;6.89;100.00
66273;BME280;58450;52.150;4.466;2022-11-22T10:20:21;99153.75;;;6.85;100.00
66273;BME280;58450;52.150;4.466;2022-11-22T10:22:50;99142.88;;;7.00;100.00
66273;BME280;58450;52.150;4.466;2022-11-22T10:25:20;99145.34;;;7.01;100.00
66273;BME280;58450;52.150;4.466;2022-11-22T10:28:01;99149.47;;;7.04;100.00
66273;BME280;58450;52.150;4.466;2022-11-22T10:30:44;99145.94;;;7.03;100.00
66273;BME280;58450;52.150;4.466;2022-11-22T10:33:22;99139.38;;;6.99;100.00
66273;BME280;58450;52.150;4.466;2022-11-22T10:36:05;99149.22;;;7.12;100.00
66273;BME280;58450;52.150;4.466;2022-11-22T10:38:58;99146.97;;;7.09;100.00
66273;BME280;58450;52.150;4.466;2022-11-22T10:41:43;99144.50;;;7.07;100.00
66273;BME280;58450;52.150;4.466;2022-11-22T10:44:29;99146.56;;;6.92;100.00
66273;BME280;58450;52.150;4.466;2022-11-22T10:47:12;99136.91;;;7.04;100.00
66273;BME280;58450;52.150;4.466;2022-11-22T10:49:53;99150.69;;;6.94;100.00
66273;BME280;58450;52.150;4.466;2022-11-22T10:52:33;99137.94;;;6.97;100.00
66273;BME280;58450;52.150;4.466;2022-11-22T10:55:15;99139.19;;;7.01;100.00
66273;BME280;58450;52.150;4.466;2022-11-22T10:57:59;99136.69;;;6.99;100.00
66273;BME280;58450;52.150;4.466;2022-11-22T11:00:36;99138.53;;;7.05;100.00
66273;BME280;58450;52.150;4.466;2022-11-22T11:03:15;99126.63;;;7.01;100.00
66273;BME280;58450;52.150;4.466;2022-11-22T11:05:52;99123.94;;;7.01;100.00
66273;BME280;58450;52.150;4.466;2022-11-22T11:08:37;99123.13;;;7.07;100.00
66273;BME280;58450;52.150;4.466;2022-11-22T11:11:08;99128.47;;;6.94;100.00
66273;BME280;58450;52.150;4.466;2022-11-22T11:13:38;99130.75;;;7.04;100.00
66273;BME280;58450;52.150;4.466;2022-11-22T11:16:12;99135.25;;;7.10;100.00
66273;BME280;58450;52.150;4.466;2022-11-22T11:18:48;99130.50;;;7.12;100.00
66273;BME280;58450;52.150;4.466;2022-11-22T11:21:21;99126.41;;;7.03;100.00
66273;BME280;58450;52.150;4.466;2022-11-22T11:23:50;99119.59;;;7.20;100.00
66273;BME280;58450;52.150;4.466;2022-11-22T11:26:22;99112.00;;;7.24;100.00
66273;BME280;58450;52.150;4.466;2022-11-22T11:32:05;99110.53;;;7.28;100.00
66273;BME280;58450;52.150;4.466;2022-11-22T11:34:38;99110.31;;;7.30;100.00
66273;BME280;58450;52.150;4.466;2022-11-22T11:37:21;99114.03;;;7.35;100.00
66273;BME280;58450;52.150;4.466;2022-11-22T11:39:50;99106.22;;;7.20;100.00
66273;BME280;58450;52.150;4.466;2022-11-22T11:42:26;99106.19;;;7.34;100.00
66273;BME280;58450;52.150;4.466;2022-11-22T11:45:20;99095.69;;;7.46;100.00
66273;BME280;58450;52.150;4.466;2022-11-22T11:47:54;99092.75;;;7.61;100.00
66273;BME280;58450;52.150;4.466;2022-11-22T11:50:24;99087.34;;;7.74;100.00
66273;BME280;58450;52.150;4.466;2022-11-22T11:52:56;99082.19;;;7.79;100.00
66273;BME280;58450;52.150;4.466;2022-11-22T11:55:31;99091.41;;;7.90;100.00
66273;BME280;58450;52.150;4.466;2022-11-22T11:58:02;99096.19;;;7.81;100.00
66273;BME280;58450;52.150;4.466;2022-11-22T12:00:41;99097.84;;;7.82;100.00
66273;BME280;58450;52.150;4.466;2022-11-22T12:03:11;99088.75;;;7.83;100.00
66273;BME280;58450;52.150;4.466;2022-11-22T12:05:46;99102.34;;;7.82;100.00
66273;BME280;58450;52.150;4.466;2022-11-22T12:08:27;99095.59;;;7.73;100.00
66273;BME280;58450;52.150;4.466;2022-11-22T12:10:59;99094.31;;;7.82;100.00
66273;BME280;58450;52.150;4.466;2022-11-22T12:13:37;99085.47;;;7.81;100.00
66273;BME280;58450;52.150;4.466;2022-11-22T12:16:15;99081.72;;;7.89;100.00
66273;BME280;58450;52.150;4.466;2022-11-22T12:18:52;99094.50;;;7.94;100.00
66273;BME280;58450;52.150;4.466;2022-11-22T12:21:33;99102.44;;;8.07;100.00
66273;BME280;58450;52.150;4.466;2022-11-22T12:24:13;99085.16;;;8.03;100.00
66273;BME280;58450;52.150;4.466;2022-11-22T12:26:43;99095.88;;;8.03;100.00
66273;BME280;58450;52.150;4.466;2022-11-22T12:29:11;99096.94;;;7.95;100.00
66273;BME280;58450;52.150;4.466;2022-11-22T12:31:43;99084.53;;;8.01;100.00
66273;BME280;58450;52.150;4.466;2022-11-22T12:34:22;99092.81;;;7.99;100.00
66273;BME280;58450;52.150;4.466;2022-11-22T12:36:58;99106.00;;;7.94;100.00
66273;BME280;58450;52.150;4.466;2022-11-22T12:39:35;99110.56;;;7.87;100.00
66273;BME280;58450;52.150;4.466;2022-11-22T12:42:09;99099.25;;;7.85;100.00
66273;BME280;58450;52.150;4.466;2022-11-22T12:44:43;99106.44;;;7.91;100.00
66273;BME280;58450;52.150;4.466;2022-11-22T12:47:19;99093.66;;;7.93;100.00
66273;BME280;58450;52.150;4.466;2022-11-22T12:49:52;99096.13;;;7.95;100.00
66273;BME280;58450;52.150;4.466;2022-11-22T12:52:30;99090.72;;;8.02;100.00
66273;BME280;58450;52.150;4.466;2022-11-22T12:55:04;99098.53;;;8.03;100.00
66273;BME280;58450;52.150;4.466;2022-11-22T12:57:45;99088.00;;;8.15;100.00
66273;BME280;58450;52.150;4.466;2022-11-22T13:00:23;99092.25;;;8.30;100.00
66273;BME280;58450;52.150;4.466;2022-11-22T13:02:58;99092.19;;;8.36;100.00
66273;BME280;58450;52.150;4.466;2022-11-22T13:05:33;99096.38;;;8.25;100.00
66273;BME280;58450;52.150;4.466;2022-11-22T13:08:12;99098.59;;;8.35;100.00
66273;BME280;58450;52.150;4.466;2022-11-22T13:10:47;99098.22;;;8.25;100.00
66273;BME280;58450;52.150;4.466;2022-11-22T13:13:21;99087.34;;;8.20;100.00
66273;BME280;58450;52.150;4.466;2022-11-22T13:15:55;99095.00;;;8.16;100.00
66273;BME280;58450;52.150;4.466;2022-11-22T13:18:29;99106.34;;;8.11;100.00
66273;BME280;58450;52.150;4.466;2022-11-22T13:21:04;99102.25;;;8.09;100.00
66273;BME280;58450;52.150;4.466;2022-11-22T13:23:59;99092.25;;;8.23;100.00